sensor_id;sensor_type;location;lat;lon;timestamp;temperature;humidity
851;DHT22;412;51.400;7.480;2023-04-24T00:00:09;14.10;99.90
851;DHT22;412;51.400;7.480;2023-04-24T00:02:36;13.90;99.90
851;DHT22;412;51.400;7.480;2023-04-24T00:05:06;13.80;99.90
851;DHT22;412;51.400;7.480;2023-04-24T00:07:32;13.90;99.90
851;DHT22;412;51.400;7.480;2023-04-24T00:09:58;13.90;99.90
851;DHT22;412;51.400;7.480;2023-04-24T00:12:24;13.90;99.90
851;DHT22;412;51.400;7.480;2023-04-24T00:14:50;13.90;99.90
851;DHT22;412;51.400;7.480;2023-04-24T00:17:16;13.90;99.90
851;DHT22;412;51.400;7.480;2023-04-24T00:19:46;13.90;99.90
851;DHT22;412;51.400;7.480;2023-04-24T00:22:12;13.90;99.90
851;DHT22;412;51.400;7.480;2023-04-24T00:24:39;13.90;99.90
851;DHT22;412;51.400;7.480;2023-04-24T00:27:05;13.90;99.90
851;DHT22;412;51.400;7.480;2023-04-24T00:29:30;13.80;99.90
851;DHT22;412;51.400;7.480;2023-04-24T00:31:56;13.90;99.90
851;DHT22;412;51.400;7.480;2023-04-24T00:34:22;13.90;99.90
851;DHT22;412;51.400;7.480;2023-04-24T00:36:48;13.80;99.90
851;DHT22;412;51.400;7.480;2023-04-24T00:39:21;13.70;99.90
851;DHT22;412;51.400;7.480;2023-04-24T00:41:47;13.70;99.90
851;DHT22;412;51.400;7.480;2023-04-24T00:44:14;13.70;99.90
851;DHT22;412;51.400;7.480;2023-04-24T00:46:40;13.60;99.90
851;DHT22;412;51.400;7.480;2023-04-24T00:49:06;13.60;99.90
851;DHT22;412;51.400;7.480;2023-04-24T00:51:32;13.70;99.90
851;DHT22;412;51.400;7.480;2023-04-24T00:53:59;13.60;99.90
851;DHT22;412;51.400;7.480;2023-04-24T00:56:25;13.60;99.90
851;DHT22;412;51.400;7.480;2023-04-24T00:58:51;13.50;99.90
851;DHT22;412;51.400;7.480;2023-04-24T01:01:19;13.50;99.90
851;DHT22;412;51.400;7.480;2023-04-24T01:03:46;13.50;99.90
851;DHT22;412;51.400;7.480;2023-04-24T01:06:13;13.50;99.90
851;DHT22;412;51.400;7.480;2023-04-24T01:08:39;13.50;99.90
851;DHT22;412;51.400;7.480;2023-04-24T01:11:05;13.50;99.90
851;DHT22;412;51.400;7.480;2023-04-24T01:13:32;13.60;99.90
851;DHT22;412;51.400;7.480;2023-04-24T01:15:58;13.60;99.90
851;DHT22;412;51.400;7.480;2023-04-24T01:18:24;13.60;99.90
851;DHT22;412;51.400;7.480;2023-04-24T01:20:54;13.60;99.90
851;DHT22;412;51.400;7.480;2023-04-24T01:23:22;13.60;99.90
851;DHT22;412;51.400;7.480;2023-04-24T01:25:49;13.70;99.90
851;DHT22;412;51.400;7.480;2023-04-24T01:28:15;13.70;99.90
851;DHT22;412;51.400;7.480;2023-04-24T01:30:41;13.70;99.90
851;DHT22;412;51.400;7.480;2023-04-24T01:33:07;13.70;99.90
851;DHT22;412;51.400;7.480;2023-04-24T01:35:33;13.70;99.90
851;DHT22;412;51.400;7.480;2023-04-24T01:37:59;13.80;99.90
851;DHT22;412;51.400;7.480;2023-04-24T01:40:25;13.80;99.90
851;DHT22;412;51.400;7.480;2023-04-24T01:42:51;13.80;99.90
851;DHT22;412;51.400;7.480;2023-04-24T01:45:17;13.80;99.90
851;DHT22;412;51.400;7.480;2023-04-24T01:47:44;13.80;99.90
851;DHT22;412;51.400;7.480;2023-04-24T01:50:10;13.80;99.90
851;DHT22;412;51.400;7.480;2023-04-24T01:52:36;13.80;99.90
851;DHT22;412;51.400;7.480;2023-04-24T01:55:05;13.80;99.90
851;DHT22;412;51.400;7.480;2023-04-24T01:57:33;13.90;99.90
851;DHT22;412;51.400;7.480;2023-04-24T01:59:59;13.90;99.90
851;DHT22;412;51.400;7.480;2023-04-24T02:02:25;14.00;99.90
851;DHT22;412;51.400;7.480;2023-04-24T02:04:53;14.00;99.90
851;DHT22;412;51.400;7.480;2023-04-24T02:07:19;14.00;99.90
851;DHT22;412;51.400;7.480;2023-04-24T02:09:45;14.00;99.90
851;DHT22;412;51.400;7.480;2023-04-24T02:12:11;14.10;99.90
851;DHT22;412;51.400;7.480;2023-04-24T02:14:37;14.00;99.90
851;DHT22;412;51.400;7.480;2023-04-24T02:17:03;14.00;99.90
851;DHT22;412;51.400;7.480;2023-04-24T02:19:29;14.00;99.90
851;DHT22;412;51.400;7.480;2023-04-24T02:21:54;14.00;99.90
851;DHT22;412;51.400;7.480;2023-04-24T02:24:20;13.90;99.90
851;DHT22;412;51.400;7.480;2023-04-24T02:26:46;13.80;99.90
851;DHT22;412;51.400;7.480;2023-04-24T02:29:11;13.70;99.90
851;DHT22;412;51.400;7.480;2023-04-24T02:31:37;13.70;99.90
851;DHT22;412;51.400;7.480;2023-04-24T02:34:03;13.60;99.90
851;DHT22;412;51.400;7.480;2023-04-24T02:36:28;13.70;99.90
851;DHT22;412;51.400;7.480;2023-04-24T02:38:55;13.60;99.90
851;DHT22;412;51.400;7.480;2023-04-24T02:41:21;13.60;99.90
851;DHT22;412;51.400;7.480;2023-04-24T02:43:47;13.60;99.90
851;DHT22;412;51.400;7.480;2023-04-24T02:46:12;13.60;99.90
851;DHT22;412;51.400;7.480;2023-04-24T02:48:38;13.50;99.90
851;DHT22;412;51.400;7.480;2023-04-24T02:51:04;13.50;99.90
851;DHT22;412;51.400;7.480;2023-04-24T02:53:30;13.50;99.90
851;DHT22;412;51.400;7.480;2023-04-24T02:55:56;13.50;99.90
851;DHT22;412;51.400;7.480;2023-04-24T02:58:22;13.30;99.90
851;DHT22;412;51.400;7.480;2023-04-24T03:00:48;13.30;99.90
851;DHT22;412;51.400;7.480;2023-04-24T03:03:14;13.30;99.90
851;DHT22;412;51.400;7.480;2023-04-24T03:05:40;13.20;99.90
851;DHT22;412;51.400;7.480;2023-04-24T03:08:06;13.20;99.90
851;DHT22;412;51.400;7.480;2023-04-24T03:10:32;13.10;99.90
851;DHT22;412;51.400;7.480;2023-04-24T03:12:58;13.10;99.90
851;DHT22;412;51.400;7.480;2023-04-24T03:15:23;13.00;99.90
851;DHT22;412;51.400;7.480;2023-04-24T03:17:49;12.90;99.90
851;DHT22;412;51.400;7.480;2023-04-24T03:20:15;12.90;99.90
851;DHT22;412;51.400;7.480;2023-04-24T03:22:41;12.90;99.90
851;DHT22;412;51.400;7.480;2023-04-24T03:25:07;12.80;99.90
851;DHT22;412;51.400;7.480;2023-04-24T03:27:34;12.80;99.90
851;DHT22;412;51.400;7.480;2023-04-24T03:30:00;12.80;99.90
851;DHT22;412;51.400;7.480;2023-04-24T03:32:27;12.70;99.90
851;DHT22;412;51.400;7.480;2023-04-24T03:34:53;12.70;99.90
851;DHT22;412;51.400;7.480;2023-04-24T03:37:18;12.70;99.90
851;DHT22;412;51.400;7.480;2023-04-24T03:39:44;12.70;99.90
851;DHT22;412;51.400;7.480;2023-04-24T03:42:10;12.70;99.90
851;DHT22;412;51.400;7.480;2023-04-24T03:44:36;12.70;99.90
851;DHT22;412;51.400;7.480;2023-04-24T03:47:02;12.70;99.90
851;DHT22;412;51.400;7.480;2023-04-24T03:49:27;12.70;99.90
851;DHT22;412;51.400;7.480;2023-04-24T03:51:53;12.70;99.90
851;DHT22;412;51.400;7.480;2023-04-24T03:54:19;12.70;99.90
851;DHT22;412;51.400;7.480;2023-04-24T03:56:45;12.60;99.90
851;DHT22;412;51.400;7.480;2023-04-24T03:59:11;12.60;99.90
851;DHT22;412;51.400;7.480;2023-04-24T04:01:37;12.50;99.90
851;DHT22;412;51.400;7.480;2023-04-24T04:04:03;12.60;99.90
851;DHT22;412;51.400;7.480;2023-04-24T04:06:29;12.70;99.90
851;DHT22;412;51.400;7.480;2023-04-24T04:08:58;12.60;99.90
851;DHT22;412;51.400;7.480;2023-04-24T04:11:24;12.60;99.90
851;DHT22;412;51.400;7.480;2023-04-24T04:13:50;12.70;99.90
851;DHT22;412;51.400;7.480;2023-04-24T04:16:16;12.70;99.90
851;DHT22;412;51.400;7.480;2023-04-24T04:18:45;12.70;99.90
851;DHT22;412;51.400;7.480;2023-04-24T04:21:11;12.50;99.90
851;DHT22;412;51.400;7.480;2023-04-24T04:23:37;12.50;99.90
851;DHT22;412;51.400;7.480;2023-04-24T04:26:03;12.30;99.90
851;DHT22;412;51.400;7.480;2023-04-24T04:28:30;12.40;99.90
851;DHT22;412;51.400;7.480;2023-04-24T04:30:57;12.40;99.90
851;DHT22;412;51.400;7.480;2023-04-24T04:33:23;12.30;99.90
851;DHT22;412;51.400;7.480;2023-04-24T04:35:50;12.20;99.90
851;DHT22;412;51.400;7.480;2023-04-24T04:38:18;12.20;99.90
851;DHT22;412;51.400;7.480;2023-04-24T04:40:45;12.10;99.90
851;DHT22;412;51.400;7.480;2023-04-24T04:43:11;12.20;99.90
851;DHT22;412;51.400;7.480;2023-04-24T04:45:39;12.20;99.90
851;DHT22;412;51.400;7.480;2023-04-24T04:48:05;12.30;99.90
851;DHT22;412;51.400;7.480;2023-04-24T04:50:33;12.40;99.90
851;DHT22;412;51.400;7.480;2023-04-24T04:52:59;12.50;99.90
851;DHT22;412;51.400;7.480;2023-04-24T04:55:24;12.50;99.90
851;DHT22;412;51.400;7.480;2023-04-24T04:57:51;12.50;99.90
851;DHT22;412;51.400;7.480;2023-04-24T05:00:17;12.40;99.90
851;DHT22;412;51.400;7.480;2023-04-24T05:02:43;12.40;99.90
851;DHT22;412;51.400;7.480;2023-04-24T05:05:09;12.50;99.90
851;DHT22;412;51.400;7.480;2023-04-24T05:07:35;12.50;99.90
851;DHT22;412;51.400;7.480;2023-04-24T05:10:01;12.50;99.90
851;DHT22;412;51.400;7.480;2023-04-24T05:12:27;12.50;99.90
851;DHT22;412;51.400;7.480;2023-04-24T05:14:53;12.50;99.90
851;DHT22;412;51.400;7.480;2023-04-24T05:17:19;12.60;99.90
851;DHT22;412;51.400;7.480;2023-04-24T05:19:44;12.60;99.90
851;DHT22;412;51.400;7.480;2023-04-24T05:22:10;12.50;99.90
851;DHT22;412;51.400;7.480;2023-04-24T05:24:37;12.50;99.90
851;DHT22;412;51.400;7.480;2023-04-24T05:27:03;12.50;99.90
851;DHT22;412;51.400;7.480;2023-04-24T05:29:30;12.50;99.90
851;DHT22;412;51.400;7.480;2023-04-24T05:31:57;12.50;99.90
851;DHT22;412;51.400;7.480;2023-04-24T05:34:23;12.50;99.90
851;DHT22;412;51.400;7.480;2023-04-24T05:36:49;12.60;99.90
851;DHT22;412;51.400;7.480;2023-04-24T05:39:16;12.60;99.90
851;DHT22;412;51.400;7.480;2023-04-24T05:41:42;12.60;99.90
851;DHT22;412;51.400;7.480;2023-04-24T05:44:08;12.60;99.90
851;DHT22;412;51.400;7.480;2023-04-24T05:46:35;12.60;99.90
851;DHT22;412;51.400;7.480;2023-04-24T05:49:01;12.60;99.90
851;DHT22;412;51.400;7.480;2023-04-24T05:51:27;12.60;99.90
851;DHT22;412;51.400;7.480;2023-04-24T05:53:53;12.50;99.90
851;DHT22;412;51.400;7.480;2023-04-24T05:56:19;12.50;99.90
851;DHT22;412;51.400;7.480;2023-04-24T05:58:46;12.50;99.90
851;DHT22;412;51.400;7.480;2023-04-24T06:01:12;12.40;99.90
851;DHT22;412;51.400;7.480;2023-04-24T06:03:40;12.30;99.90
851;DHT22;412;51.400;7.480;2023-04-24T06:06:07;12.30;99.90
851;DHT22;412;51.400;7.480;2023-04-24T06:08:34;12.30;99.90
851;DHT22;412;51.400;7.480;2023-04-24T06:11:00;12.30;99.90
851;DHT22;412;51.400;7.480;2023-04-24T06:13:26;12.30;99.90
851;DHT22;412;51.400;7.480;2023-04-24T06:15:52;12.40;99.90
851;DHT22;412;51.400;7.480;2023-04-24T06:18:18;12.40;99.90
851;DHT22;412;51.400;7.480;2023-04-24T06:20:45;12.40;99.90
851;DHT22;412;51.400;7.480;2023-04-24T06:23:11;12.40;99.90
851;DHT22;412;51.400;7.480;2023-04-24T06:25:37;12.40;99.90
851;DHT22;412;51.400;7.480;2023-04-24T06:28:03;12.30;99.90
851;DHT22;412;51.400;7.480;2023-04-24T06:30:29;12.30;99.90
851;DHT22;412;51.400;7.480;2023-04-24T06:32:55;12.40;99.90
851;DHT22;412;51.400;7.480;2023-04-24T06:35:20;12.50;99.90
851;DHT22;412;51.400;7.480;2023-04-24T06:37:46;12.60;99.90
851;DHT22;412;51.400;7.480;2023-04-24T06:40:12;12.60;99.90
851;DHT22;412;51.400;7.480;2023-04-24T06:42:38;12.70;99.90
851;DHT22;412;51.400;7.480;2023-04-24T06:45:04;12.60;99.90
851;DHT22;412;51.400;7.480;2023-04-24T06:47:31;12.50;99.90
851;DHT22;412;51.400;7.480;2023-04-24T06:49:56;12.50;99.90
851;DHT22;412;51.400;7.480;2023-04-24T06:52:22;12.50;99.90
851;DHT22;412;51.400;7.480;2023-04-24T06:54:48;12.40;99.90
851;DHT22;412;51.400;7.480;2023-04-24T06:57:14;12.30;99.90
851;DHT22;412;51.400;7.480;2023-04-24T06:59:41;12.20;99.90
851;DHT22;412;51.400;7.480;2023-04-24T07:02:07;12.10;99.90
851;DHT22;412;51.400;7.480;2023-04-24T07:04:33;12.10;99.90
851;DHT22;412;51.400;7.480;2023-04-24T07:06:59;12.10;99.90
851;DHT22;412;51.400;7.480;2023-04-24T07:09:26;12.10;99.90
851;DHT22;412;51.400;7.480;2023-04-24T07:11:52;12.10;99.90
851;DHT22;412;51.400;7.480;2023-04-24T07:14:19;12.10;99.90
851;DHT22;412;51.400;7.480;2023-04-24T07:16:46;12.10;99.90
851;DHT22;412;51.400;7.480;2023-04-24T07:19:13;12.00;99.90
851;DHT22;412;51.400;7.480;2023-04-24T07:21:39;12.10;99.90
851;DHT22;412;51.400;7.480;2023-04-24T07:24:05;12.20;99.90
851;DHT22;412;51.400;7.480;2023-04-24T07:26:34;12.20;99.90
851;DHT22;412;51.400;7.480;2023-04-24T07:29:00;12.30;99.90
851;DHT22;412;51.400;7.480;2023-04-24T07:31:26;12.00;99.90
851;DHT22;412;51.400;7.480;2023-04-24T07:33:52;11.90;99.90
851;DHT22;412;51.400;7.480;2023-04-24T07:36:17;12.00;99.90
851;DHT22;412;51.400;7.480;2023-04-24T07:38:47;11.90;99.90
851;DHT22;412;51.400;7.480;2023-04-24T07:41:16;12.00;99.90
851;DHT22;412;51.400;7.480;2023-04-24T07:43:42;12.10;99.90
851;DHT22;412;51.400;7.480;2023-04-24T07:46:08;12.10;99.90
851;DHT22;412;51.400;7.480;2023-04-24T07:48:34;12.00;99.90
851;DHT22;412;51.400;7.480;2023-04-24T07:51:00;12.00;99.90
851;DHT22;412;51.400;7.480;2023-04-24T07:53:26;12.00;99.90
851;DHT22;412;51.400;7.480;2023-04-24T07:55:52;11.90;99.90
851;DHT22;412;51.400;7.480;2023-04-24T07:58:17;12.00;99.90
851;DHT22;412;51.400;7.480;2023-04-24T08:00:43;11.60;99.90
851;DHT22;412;51.400;7.480;2023-04-24T08:03:09;11.70;99.90
851;DHT22;412;51.400;7.480;2023-04-24T08:05:34;11.80;99.90
851;DHT22;412;51.400;7.480;2023-04-24T08:08:00;11.70;99.90
851;DHT22;412;51.400;7.480;2023-04-24T08:10:26;11.70;99.90
851;DHT22;412;51.400;7.480;2023-04-24T08:12:52;11.80;99.90
851;DHT22;412;51.400;7.480;2023-04-24T08:15:18;11.80;99.90
851;DHT22;412;51.400;7.480;2023-04-24T08:17:43;11.80;99.90
851;DHT22;412;51.400;7.480;2023-04-24T08:20:11;11.80;99.90
851;DHT22;412;51.400;7.480;2023-04-24T08:22:40;11.90;99.90
851;DHT22;412;51.400;7.480;2023-04-24T08:25:07;12.00;99.90
851;DHT22;412;51.400;7.480;2023-04-24T08:27:33;12.00;99.90
851;DHT22;412;51.400;7.480;2023-04-24T08:29:58;12.10;99.90
851;DHT22;412;51.400;7.480;2023-04-24T08:32:25;12.00;99.90
851;DHT22;412;51.400;7.480;2023-04-24T08:34:58;11.90;99.90
851;DHT22;412;51.400;7.480;2023-04-24T08:37:25;11.90;99.90
851;DHT22;412;51.400;7.480;2023-04-24T08:39:51;11.80;99.90
851;DHT22;412;51.400;7.480;2023-04-24T08:42:17;11.90;99.90
851;DHT22;412;51.400;7.480;2023-04-24T08:44:44;11.80;99.90
851;DHT22;412;51.400;7.480;2023-04-24T08:47:11;11.90;99.90
851;DHT22;412;51.400;7.480;2023-04-24T08:49:37;11.90;99.90
851;DHT22;412;51.400;7.480;2023-04-24T08:52:05;11.90;99.90
851;DHT22;412;51.400;7.480;2023-04-24T08:54:34;11.80;99.90
851;DHT22;412;51.400;7.480;2023-04-24T08:57:01;11.80;99.90
851;DHT22;412;51.400;7.480;2023-04-24T08:59:32;11.80;99.90
851;DHT22;412;51.400;7.480;2023-04-24T09:02:00;11.80;99.90
851;DHT22;412;51.400;7.480;2023-04-24T09:04:27;11.80;99.90
851;DHT22;412;51.400;7.480;2023-04-24T09:06:56;11.80;99.90
851;DHT22;412;51.400;7.480;2023-04-24T09:09:23;11.70;99.90
851;DHT22;412;51.400;7.480;2023-04-24T09:11:50;11.70;99.90
851;DHT22;412;51.400;7.480;2023-04-24T09:14:16;11.60;99.90
851;DHT22;412;51.400;7.480;2023-04-24T09:16:42;11.60;99.90
851;DHT22;412;51.400;7.480;2023-04-24T09:19:08;11.50;99.90
851;DHT22;412;51.400;7.480;2023-04-24T09:21:35;11.50;99.90
851;DHT22;412;51.400;7.480;2023-04-24T09:24:06;11.50;99.90
851;DHT22;412;51.400;7.480;2023-04-24T09:26:35;11.50;99.90
851;DHT22;412;51.400;7.480;2023-04-24T09:29:02;11.50;99.90
851;DHT22;412;51.400;7.480;2023-04-24T09:31:29;11.50;99.90
851;DHT22;412;51.400;7.480;2023-04-24T09:34:03;11.40;99.90
851;DHT22;412;51.400;7.480;2023-04-24T09:36:33;11.40;99.90
851;DHT22;412;51.400;7.480;2023-04-24T09:39:00;11.40;99.90
851;DHT22;412;51.400;7.480;2023-04-24T09:41:27;11.40;99.90
851;DHT22;412;51.400;7.480;2023-04-24T09:43:56;11.50;99.90
851;DHT22;412;51.400;7.480;2023-04-24T09:46:30;11.50;99.90
851;DHT22;412;51.400;7.480;2023-04-24T09:48:57;11.50;99.90
851;DHT22;412;51.400;7.480;2023-04-24T09:51:34;11.40;99.90
851;DHT22;412;51.400;7.480;2023-04-24T09:54:01;11.50;99.90
851;DHT22;412;51.400;7.480;2023-04-24T09:56:26;11.50;99.90
851;DHT22;412;51.400;7.480;2023-04-24T09:58:54;11.60;99.90
851;DHT22;412;51.400;7.480;2023-04-24T10:01:32;11.50;99.90
851;DHT22;412;51.400;7.480;2023-04-24T10:03:58;11.50;99.90
851;DHT22;412;51.400;7.480;2023-04-24T10:06:32;11.50;99.90
851;DHT22;412;51.400;7.480;2023-04-24T10:08:58;11.50;99.90
851;DHT22;412;51.400;7.480;2023-04-24T10:11:27;11.50;99.90
851;DHT22;412;51.400;7.480;2023-04-24T10:13:54;11.30;99.90
851;DHT22;412;51.400;7.480;2023-04-24T10:16:23;11.10;99.90
851;DHT22;412;51.400;7.480;2023-04-24T10:18:49;11.10;99.90
851;DHT22;412;51.400;7.480;2023-04-24T10:21:16;11.10;99.90
851;DHT22;412;51.400;7.480;2023-04-24T10:23:42;11.20;99.90
851;DHT22;412;51.400;7.480;2023-04-24T10:26:09;11.10;99.90
851;DHT22;412;51.400;7.480;2023-04-24T10:28:36;11.10;99.90
851;DHT22;412;51.400;7.480;2023-04-24T10:31:02;11.00;99.90
851;DHT22;412;51.400;7.480;2023-04-24T10:33:30;11.00;99.90
851;DHT22;412;51.400;7.480;2023-04-24T10:35:56;10.90;99.90
851;DHT22;412;51.400;7.480;2023-04-24T10:38:25;10.90;99.90
851;DHT22;412;51.400;7.480;2023-04-24T10:41:18;10.90;99.90
851;DHT22;412;51.400;7.480;2023-04-24T10:43:45;10.90;99.90
851;DHT22;412;51.400;7.480;2023-04-24T10:46:19;11.00;99.90
851;DHT22;412;51.400;7.480;2023-04-24T10:48:54;11.10;99.90
851;DHT22;412;51.400;7.480;2023-04-24T10:51:23;11.00;99.90
851;DHT22;412;51.400;7.480;2023-04-24T10:53:50;11.00;99.90
851;DHT22;412;51.400;7.480;2023-04-24T10:56:17;11.10;99.90
851;DHT22;412;51.400;7.480;2023-04-24T11:01:24;11.10;99.90
851;DHT22;412;51.400;7.480;2023-04-24T11:03:55;11.10;99.90
851;DHT22;412;51.400;7.480;2023-04-24T11:06:35;11.00;99.90
851;DHT22;412;51.400;7.480;2023-04-24T11:09:05;11.10;99.90
851;DHT22;412;51.400;7.480;2023-04-24T11:11:33;11.10;99.90
851;DHT22;412;51.400;7.480;2023-04-24T11:19:25;11.20;99.90
851;DHT22;412;51.400;7.480;2023-04-24T11:22:00;11.20;99.90
851;DHT22;412;51.400;7.480;2023-04-24T11:24:37;11.30;99.90
851;DHT22;412;51.400;7.480;2023-04-24T11:34:50;11.40;99.90
851;DHT22;412;51.400;7.480;2023-04-24T11:37:17;11.40;99.90
851;DHT22;412;51.400;7.480;2023-04-24T11:39:42;11.50;99.90
851;DHT22;412;51.400;7.480;2023-04-24T11:42:09;11.40;99.90
851;DHT22;412;51.400;7.480;2023-04-24T11:44:35;11.40;99.90
851;DHT22;412;51.400;7.480;2023-04-24T11:47:05;11.30;99.90
851;DHT22;412;51.400;7.480;2023-04-24T11:49:32;11.40;99.90
851;DHT22;412;51.400;7.480;2023-04-24T11:52:03;11.40;99.90
851;DHT22;412;51.400;7.480;2023-04-24T11:54:29;11.40;99.90
851;DHT22;412;51.400;7.480;2023-04-24T11:56:56;11.50;99.90
851;DHT22;412;51.400;7.480;2023-04-24T11:59:22;11.50;99.90
851;DHT22;412;51.400;7.480;2023-04-24T12:01:48;11.60;99.90
851;DHT22;412;51.400;7.480;2023-04-24T12:04:16;11.60;99.90
851;DHT22;412;51.400;7.480;2023-04-24T12:07:02;11.70;99.90
851;DHT22;412;51.400;7.480;2023-04-24T12:09:27;11.70;99.90
851;DHT22;412;51.400;7.480;2023-04-24T12:11:56;11.80;99.90
851;DHT22;412;51.400;7.480;2023-04-24T12:14:25;11.70;99.90
851;DHT22;412;51.400;7.480;2023-04-24T12:16:51;11.70;99.90
851;DHT22;412;51.400;7.480;2023-04-24T12:19:21;11.70;99.90
851;DHT22;412;51.400;7.480;2023-04-24T12:22:04;11.70;99.90
851;DHT22;412;51.400;7.480;2023-04-24T12:24:31;11.60;99.90
851;DHT22;412;51.400;7.480;2023-04-24T12:26:58;11.60;99.90
851;DHT22;412;51.400;7.480;2023-04-24T12:29:24;11.50;99.90
851;DHT22;412;51.400;7.480;2023-04-24T12:31:51;11.60;99.90
851;DHT22;412;51.400;7.480;2023-04-24T12:34:20;11.60;99.90
851;DHT22;412;51.400;7.480;2023-04-24T12:36:47;11.60;99.90
851;DHT22;412;51.400;7.480;2023-04-24T12:39:20;11.70;99.90
851;DHT22;412;51.400;7.480;2023-04-24T12:41:58;11.70;99.90
851;DHT22;412;51.400;7.480;2023-04-24T12:44:34;11.80;99.90
851;DHT22;412;51.400;7.480;2023-04-24T12:47:02;12.00;99.90
851;DHT22;412;51.400;7.480;2023-04-24T12:49:29;12.10;99.90
851;DHT22;412;51.400;7.480;2023-04-24T12:51:55;12.10;99.90
851;DHT22;412;51.400;7.480;2023-04-24T12:54:22;12.20;99.90
851;DHT22;412;51.400;7.480;2023-04-24T12:56:48;12.20;99.90
851;DHT22;412;51.400;7.480;2023-04-24T12:59:13;12.20;99.90
851;DHT22;412;51.400;7.480;2023-04-24T13:01:40;12.30;99.90
851;DHT22;412;51.400;7.480;2023-04-24T13:04:05;12.30;99.90
851;DHT22;412;51.400;7.480;2023-04-24T13:06:31;12.20;99.90
851;DHT22;412;51.400;7.480;2023-04-24T13:08:57;12.20;99.90
851;DHT22;412;51.400;7.480;2023-04-24T13:11:24;12.20;99.90
851;DHT22;412;51.400;7.480;2023-04-24T13:13:50;12.20;99.90
851;DHT22;412;51.400;7.480;2023-04-24T13:16:16;12.20;99.90
851;DHT22;412;51.400;7.480;2023-04-24T13:18:42;12.20;99.90
851;DHT22;412;51.400;7.480;2023-04-24T13:21:08;12.10;99.90
851;DHT22;412;51.400;7.480;2023-04-24T13:23:33;12.10;99.90
851;DHT22;412;51.400;7.480;2023-04-24T13:26:00;12.10;99.90
851;DHT22;412;51.400;7.480;2023-04-24T13:28:27;12.10;99.90
851;DHT22;412;51.400;7.480;2023-04-24T13:30:53;12.10;99.90
851;DHT22;412;51.400;7.480;2023-04-24T13:33:19;12.50;99.90
851;DHT22;412;51.400;7.480;2023-04-24T13:35:44;13.40;99.90
851;DHT22;412;51.400;7.480;2023-04-24T13:38:10;13.40;99.90
851;DHT22;412;51.400;7.480;2023-04-24T13:40:36;13.90;99.90
851;DHT22;412;51.400;7.480;2023-04-24T13:43:02;14.20;99.90
851;DHT22;412;51.400;7.480;2023-04-24T13:45:28;14.50;99.90
851;DHT22;412;51.400;7.480;2023-04-24T13:47:54;14.30;99.90
851;DHT22;412;51.400;7.480;2023-04-24T13:50:20;14.20;99.90
851;DHT22;412;51.400;7.480;2023-04-24T13:52:46;14.00;99.90
851;DHT22;412;51.400;7.480;2023-04-24T13:55:12;13.80;99.90
851;DHT22;412;51.400;7.480;2023-04-24T13:57:37;14.00;99.90
851;DHT22;412;51.400;7.480;2023-04-24T14:00:04;14.10;99.90
851;DHT22;412;51.400;7.480;2023-04-24T14:02:31;13.80;99.90
851;DHT22;412;51.400;7.480;2023-04-24T14:04:57;13.90;99.90
851;DHT22;412;51.400;7.480;2023-04-24T14:07:23;13.80;99.90
851;DHT22;412;51.400;7.480;2023-04-24T14:09:48;13.60;99.90
851;DHT22;412;51.400;7.480;2023-04-24T14:12:15;13.40;99.90
851;DHT22;412;51.400;7.480;2023-04-24T14:14:46;13.10;99.90
851;DHT22;412;51.400;7.480;2023-04-24T14:17:13;13.00;99.90
851;DHT22;412;51.400;7.480;2023-04-24T14:19:40;12.90;99.90
851;DHT22;412;51.400;7.480;2023-04-24T14:22:05;12.80;99.90
851;DHT22;412;51.400;7.480;2023-04-24T14:24:31;12.70;99.90
851;DHT22;412;51.400;7.480;2023-04-24T14:26:57;12.60;99.90
851;DHT22;412;51.400;7.480;2023-04-24T14:29:23;12.60;99.90
851;DHT22;412;51.400;7.480;2023-04-24T14:31:49;12.60;99.90
851;DHT22;412;51.400;7.480;2023-04-24T14:34:15;12.60;99.90
851;DHT22;412;51.400;7.480;2023-04-24T14:36:42;12.70;99.90
851;DHT22;412;51.400;7.480;2023-04-24T14:39:08;12.70;99.90
851;DHT22;412;51.400;7.480;2023-04-24T14:41:34;12.70;99.90
851;DHT22;412;51.400;7.480;2023-04-24T14:44:02;12.80;99.90
851;DHT22;412;51.400;7.480;2023-04-24T14:46:29;12.90;99.90
851;DHT22;412;51.400;7.480;2023-04-24T14:48:56;13.00;99.90
851;DHT22;412;51.400;7.480;2023-04-24T14:51:22;13.10;99.90
851;DHT22;412;51.400;7.480;2023-04-24T14:53:48;13.10;99.90
851;DHT22;412;51.400;7.480;2023-04-24T14:56:14;13.10;99.90
851;DHT22;412;51.400;7.480;2023-04-24T14:58:40;13.10;99.90
851;DHT22;412;51.400;7.480;2023-04-24T15:01:06;13.20;99.90
851;DHT22;412;51.400;7.480;2023-04-24T15:03:32;13.20;99.90
851;DHT22;412;51.400;7.480;2023-04-24T15:05:57;13.20;99.90
851;DHT22;412;51.400;7.480;2023-04-24T15:08:23;13.20;99.90
851;DHT22;412;51.400;7.480;2023-04-24T15:10:49;13.30;99.90
851;DHT22;412;51.400;7.480;2023-04-24T15:13:15;13.20;99.90
851;DHT22;412;51.400;7.480;2023-04-24T15:15:41;13.30;99.90
851;DHT22;412;51.400;7.480;2023-04-24T15:18:08;13.30;99.90
851;DHT22;412;51.400;7.480;2023-04-24T15:20:36;13.30;99.90
851;DHT22;412;51.400;7.480;2023-04-24T15:23:01;13.30;99.90
851;DHT22;412;51.400;7.480;2023-04-24T15:25:27;13.20;99.90
851;DHT22;412;51.400;7.480;2023-04-24T15:27:53;13.20;99.90
851;DHT22;412;51.400;7.480;2023-04-24T15:30:19;13.20;99.90
851;DHT22;412;51.400;7.480;2023-04-24T15:32:45;13.00;98.40
851;DHT22;412;51.400;7.480;2023-04-24T15:35:11;12.80;98.00
851;DHT22;412;51.400;7.480;2023-04-24T15:37:38;12.60;99.50
851;DHT22;412;51.400;7.480;2023-04-24T15:40:05;12.50;99.90
851;DHT22;412;51.400;7.480;2023-04-24T15:42:32;12.50;99.90
851;DHT22;412;51.400;7.480;2023-04-24T15:44:58;12.40;99.90
851;DHT22;412;51.400;7.480;2023-04-24T15:47:24;12.50;99.90
851;DHT22;412;51.400;7.480;2023-04-24T15:49:51;12.50;99.90
851;DHT22;412;51.400;7.480;2023-04-24T15:52:18;12.60;99.90
851;DHT22;412;51.400;7.480;2023-04-24T15:54:44;12.70;99.90
851;DHT22;412;51.400;7.480;2023-04-24T15:57:09;12.70;99.90
851;DHT22;412;51.400;7.480;2023-04-24T15:59:35;12.80;99.90
851;DHT22;412;51.400;7.480;2023-04-24T16:02:02;12.90;99.90
851;DHT22;412;51.400;7.480;2023-04-24T16:04:29;12.90;99.90
851;DHT22;412;51.400;7.480;2023-04-24T16:06:55;13.00;99.90
851;DHT22;412;51.400;7.480;2023-04-24T16:09:22;13.00;99.90
851;DHT22;412;51.400;7.480;2023-04-24T16:11:48;13.00;99.90
851;DHT22;412;51.400;7.480;2023-04-24T16:14:13;13.00;99.90
851;DHT22;412;51.400;7.480;2023-04-24T16:16:39;13.00;99.90
851;DHT22;412;51.400;7.480;2023-04-24T16:19:05;13.10;99.90
851;DHT22;412;51.400;7.480;2023-04-24T16:21:32;13.00;99.90
851;DHT22;412;51.400;7.480;2023-04-24T16:23:58;13.00;99.90
851;DHT22;412;51.400;7.480;2023-04-24T16:26:24;13.00;99.90
851;DHT22;412;51.400;7.480;2023-04-24T16:28:50;13.00;99.90
851;DHT22;412;51.400;7.480;2023-04-24T16:31:16;12.90;99.90
851;DHT22;412;51.400;7.480;2023-04-24T16:33:42;12.90;99.90
851;DHT22;412;51.400;7.480;2023-04-24T16:36:08;12.90;99.30
851;DHT22;412;51.400;7.480;2023-04-24T16:38:34;12.90;99.60
851;DHT22;412;51.400;7.480;2023-04-24T16:41:00;12.90;99.90
851;DHT22;412;51.400;7.480;2023-04-24T16:43:26;12.80;99.90
851;DHT22;412;51.400;7.480;2023-04-24T16:45:52;12.80;99.10